sensor_id;sensor_type;location;lat;lon;timestamp;temperature;humidity
3705;DHT22;1868;48.918;9.438;2023-07-13T00:01:34;20.50;97.40
3705;DHT22;1868;48.918;9.438;2023-07-13T00:04:03;20.40;97.40
3705;DHT22;1868;48.918;9.438;2023-07-13T00:06:33;20.30;97.40
3705;DHT22;1868;48.918;9.438;2023-07-13T00:09:03;20.30;97.40
3705;DHT22;1868;48.918;9.438;2023-07-13T00:11:32;20.20;97.40
3705;DHT22;1868;48.918;9.438;2023-07-13T00:14:03;20.20;97.40
3705;DHT22;1868;48.918;9.438;2023-07-13T00:16:36;20.10;97.40
3705;DHT22;1868;48.918;9.438;2023-07-13T00:19:07;20.10;97.40
3705;DHT22;1868;48.918;9.438;2023-07-13T00:21:36;20.00;97.40
3705;DHT22;1868;48.918;9.438;2023-07-13T00:24:05;20.00;97.40
3705;DHT22;1868;48.918;9.438;2023-07-13T00:26:34;20.00;97.40
3705;DHT22;1868;48.918;9.438;2023-07-13T00:29:03;19.90;97.40
3705;DHT22;1868;48.918;9.438;2023-07-13T00:31:37;19.90;97.40
3705;DHT22;1868;48.918;9.438;2023-07-13T00:34:06;19.90;97.40
3705;DHT22;1868;48.918;9.438;2023-07-13T00:36:35;19.80;97.40
3705;DHT22;1868;48.918;9.438;2023-07-13T00:39:05;19.80;97.40
3705;DHT22;1868;48.918;9.438;2023-07-13T00:41:35;19.70;97.40
3705;DHT22;1868;48.918;9.438;2023-07-13T00:44:04;19.70;97.40
3705;DHT22;1868;48.918;9.438;2023-07-13T00:46:33;19.60;97.40
3705;DHT22;1868;48.918;9.438;2023-07-13T00:49:07;19.60;97.40
3705;DHT22;1868;48.918;9.438;2023-07-13T00:51:40;19.50;97.40
3705;DHT22;1868;48.918;9.438;2023-07-13T00:54:20;19.50;97.40
3705;DHT22;1868;48.918;9.438;2023-07-13T00:56:54;19.40;97.40
3705;DHT22;1868;48.918;9.438;2023-07-13T00:59:26;19.30;97.40
3705;DHT22;1868;48.918;9.438;2023-07-13T01:01:54;19.30;97.40
3705;DHT22;1868;48.918;9.438;2023-07-13T01:04:25;19.20;97.40
3705;DHT22;1868;48.918;9.438;2023-07-13T01:06:55;19.20;97.40
3705;DHT22;1868;48.918;9.438;2023-07-13T01:09:27;19.10;97.40
3705;DHT22;1868;48.918;9.438;2023-07-13T01:11:56;19.10;97.40
3705;DHT22;1868;48.918;9.438;2023-07-13T01:14:26;19.00;97.40
3705;DHT22;1868;48.918;9.438;2023-07-13T01:16:55;19.00;97.40
3705;DHT22;1868;48.918;9.438;2023-07-13T01:19:35;18.90;97.40
3705;DHT22;1868;48.918;9.438;2023-07-13T01:22:10;18.80;97.40
3705;DHT22;1868;48.918;9.438;2023-07-13T01:24:42;18.80;97.40
3705;DHT22;1868;48.918;9.438;2023-07-13T01:27:14;18.70;97.40
3705;DHT22;1868;48.918;9.438;2023-07-13T01:29:46;18.70;97.40
3705;DHT22;1868;48.918;9.438;2023-07-13T01:32:23;18.60;97.40
3705;DHT22;1868;48.918;9.438;2023-07-13T01:34:54;18.50;97.40
3705;DHT22;1868;48.918;9.438;2023-07-13T01:37:28;18.40;97.40
3705;DHT22;1868;48.918;9.438;2023-07-13T01:40:00;18.30;97.40
3705;DHT22;1868;48.918;9.438;2023-07-13T01:42:30;18.30;97.40
3705;DHT22;1868;48.918;9.438;2023-07-13T01:44:59;18.20;97.40
3705;DHT22;1868;48.918;9.438;2023-07-13T01:47:30;18.20;97.40
3705;DHT22;1868;48.918;9.438;2023-07-13T01:49:59;18.10;97.40
3705;DHT22;1868;48.918;9.438;2023-07-13T01:52:30;18.10;97.40
3705;DHT22;1868;48.918;9.438;2023-07-13T01:54:59;18.00;97.40
3705;DHT22;1868;48.918;9.438;2023-07-13T01:57:28;18.00;97.40
3705;DHT22;1868;48.918;9.438;2023-07-13T01:59:57;17.90;97.40
3705;DHT22;1868;48.918;9.438;2023-07-13T02:02:26;17.80;97.40
3705;DHT22;1868;48.918;9.438;2023-07-13T02:04:55;17.80;97.40
3705;DHT22;1868;48.918;9.438;2023-07-13T02:07:24;17.80;97.40
3705;DHT22;1868;48.918;9.438;2023-07-13T02:09:54;17.70;97.40
3705;DHT22;1868;48.918;9.438;2023-07-13T02:12:23;17.70;97.40
3705;DHT22;1868;48.918;9.438;2023-07-13T02:14:53;17.70;97.40
3705;DHT22;1868;48.918;9.438;2023-07-13T02:17:24;17.60;97.40
3705;DHT22;1868;48.918;9.438;2023-07-13T02:19:54;17.60;97.40
3705;DHT22;1868;48.918;9.438;2023-07-13T02:22:24;17.50;97.40
3705;DHT22;1868;48.918;9.438;2023-07-13T02:24:54;17.40;97.40
3705;DHT22;1868;48.918;9.438;2023-07-13T02:27:23;17.30;97.40
3705;DHT22;1868;48.918;9.438;2023-07-13T02:29:52;17.30;97.40
3705;DHT22;1868;48.918;9.438;2023-07-13T02:32:22;17.20;97.40
3705;DHT22;1868;48.918;9.438;2023-07-13T02:34:52;17.20;97.40
3705;DHT22;1868;48.918;9.438;2023-07-13T02:37:21;17.10;97.40
3705;DHT22;1868;48.918;9.438;2023-07-13T02:39:50;17.10;97.40
3705;DHT22;1868;48.918;9.438;2023-07-13T02:42:21;17.00;97.40
3705;DHT22;1868;48.918;9.438;2023-07-13T02:44:49;17.00;97.40
3705;DHT22;1868;48.918;9.438;2023-07-13T02:47:22;16.90;97.40
3705;DHT22;1868;48.918;9.438;2023-07-13T02:49:53;16.90;97.40
3705;DHT22;1868;48.918;9.438;2023-07-13T02:52:23;16.80;97.40
3705;DHT22;1868;48.918;9.438;2023-07-13T02:54:52;16.80;97.40
3705;DHT22;1868;48.918;9.438;2023-07-13T02:57:23;16.80;97.40
3705;DHT22;1868;48.918;9.438;2023-07-13T02:59:53;16.80;97.40
3705;DHT22;1868;48.918;9.438;2023-07-13T03:02:22;16.70;97.40
3705;DHT22;1868;48.918;9.438;2023-07-13T03:04:52;16.70;97.40
3705;DHT22;1868;48.918;9.438;2023-07-13T03:07:21;16.70;97.40
3705;DHT22;1868;48.918;9.438;2023-07-13T03:09:54;16.70;97.40
3705;DHT22;1868;48.918;9.438;2023-07-13T03:12:32;16.60;97.40
3705;DHT22;1868;48.918;9.438;2023-07-13T03:15:06;16.60;97.40
3705;DHT22;1868;48.918;9.438;2023-07-13T03:17:39;16.50;97.40
3705;DHT22;1868;48.918;9.438;2023-07-13T03:20:10;16.50;97.40
3705;DHT22;1868;48.918;9.438;2023-07-13T03:22:39;16.40;97.40
3705;DHT22;1868;48.918;9.438;2023-07-13T03:25:11;16.40;97.40
3705;DHT22;1868;48.918;9.438;2023-07-13T03:27:43;16.40;97.40
3705;DHT22;1868;48.918;9.438;2023-07-13T03:30:12;16.40;97.40
3705;DHT22;1868;48.918;9.438;2023-07-13T03:32:43;16.40;97.40
3705;DHT22;1868;48.918;9.438;2023-07-13T03:35:12;16.40;97.40
3705;DHT22;1868;48.918;9.438;2023-07-13T03:37:42;16.40;97.40
3705;DHT22;1868;48.918;9.438;2023-07-13T03:40:18;16.40;97.40
3705;DHT22;1868;48.918;9.438;2023-07-13T03:42:49;16.40;97.40
3705;DHT22;1868;48.918;9.438;2023-07-13T03:45:20;16.50;97.40
3705;DHT22;1868;48.918;9.438;2023-07-13T03:47:49;16.50;97.40
3705;DHT22;1868;48.918;9.438;2023-07-13T03:50:19;16.50;97.40
3705;DHT22;1868;48.918;9.438;2023-07-13T03:52:48;16.50;97.40
3705;DHT22;1868;48.918;9.438;2023-07-13T03:55:17;16.50;97.40
3705;DHT22;1868;48.918;9.438;2023-07-13T03:57:46;16.60;97.40
3705;DHT22;1868;48.918;9.438;2023-07-13T04:00:21;16.60;97.40
3705;DHT22;1868;48.918;9.438;2023-07-13T04:02:53;16.60;97.40
3705;DHT22;1868;48.918;9.438;2023-07-13T04:05:23;16.60;97.40
3705;DHT22;1868;48.918;9.438;2023-07-13T04:07:53;16.60;97.40
3705;DHT22;1868;48.918;9.438;2023-07-13T04:10:22;16.60;97.40
3705;DHT22;1868;48.918;9.438;2023-07-13T04:12:54;16.60;97.40
3705;DHT22;1868;48.918;9.438;2023-07-13T04:15:24;16.60;97.40
3705;DHT22;1868;48.918;9.438;2023-07-13T04:17:53;16.60;97.40
3705;DHT22;1868;48.918;9.438;2023-07-13T04:20:24;16.70;97.40
3705;DHT22;1868;48.918;9.438;2023-07-13T04:22:54;16.70;97.40
3705;DHT22;1868;48.918;9.438;2023-07-13T04:25:24;16.70;97.40
3705;DHT22;1868;48.918;9.438;2023-07-13T04:27:55;16.80;97.40
3705;DHT22;1868;48.918;9.438;2023-07-13T04:30:24;16.80;97.40
3705;DHT22;1868;48.918;9.438;2023-07-13T04:32:55;16.80;97.40
3705;DHT22;1868;48.918;9.438;2023-07-13T04:35:26;16.80;97.40
3705;DHT22;1868;48.918;9.438;2023-07-13T04:37:55;16.80;97.40
3705;DHT22;1868;48.918;9.438;2023-07-13T04:40:23;16.90;97.40
3705;DHT22;1868;48.918;9.438;2023-07-13T04:42:52;16.90;97.40
3705;DHT22;1868;48.918;9.438;2023-07-13T04:45:24;16.90;97.40
3705;DHT22;1868;48.918;9.438;2023-07-13T04:47:53;16.90;97.40
3705;DHT22;1868;48.918;9.438;2023-07-13T04:50:22;16.90;97.40
3705;DHT22;1868;48.918;9.438;2023-07-13T04:52:52;16.90;97.40
3705;DHT22;1868;48.918;9.438;2023-07-13T04:55:21;16.90;97.40
3705;DHT22;1868;48.918;9.438;2023-07-13T04:57:50;16.90;97.40
3705;DHT22;1868;48.918;9.438;2023-07-13T05:00:21;16.90;97.40
3705;DHT22;1868;48.918;9.438;2023-07-13T05:02:50;16.90;97.40
3705;DHT22;1868;48.918;9.438;2023-07-13T05:05:20;16.90;97.40
3705;DHT22;1868;48.918;9.438;2023-07-13T05:07:49;16.90;97.40
3705;DHT22;1868;48.918;9.438;2023-07-13T05:10:19;16.90;97.40
3705;DHT22;1868;48.918;9.438;2023-07-13T05:12:48;17.00;97.40
3705;DHT22;1868;48.918;9.438;2023-07-13T05:15:20;17.00;97.40
3705;DHT22;1868;48.918;9.438;2023-07-13T05:17:52;17.00;97.40
3705;DHT22;1868;48.918;9.438;2023-07-13T05:20:21;17.10;97.40
3705;DHT22;1868;48.918;9.438;2023-07-13T05:22:50;17.10;97.40
3705;DHT22;1868;48.918;9.438;2023-07-13T05:25:20;17.20;97.40
3705;DHT22;1868;48.918;9.438;2023-07-13T05:27:50;17.30;97.40
3705;DHT22;1868;48.918;9.438;2023-07-13T05:30:20;17.50;97.40
3705;DHT22;1868;48.918;9.438;2023-07-13T05:32:50;17.60;97.40
3705;DHT22;1868;48.918;9.438;2023-07-13T05:35:19;17.70;97.40
3705;DHT22;1868;48.918;9.438;2023-07-13T05:37:48;17.80;97.40
3705;DHT22;1868;48.918;9.438;2023-07-13T05:40:17;17.90;97.40
3705;DHT22;1868;48.918;9.438;2023-07-13T05:42:46;18.00;97.40
3705;DHT22;1868;48.918;9.438;2023-07-13T05:45:15;18.10;97.40
3705;DHT22;1868;48.918;9.438;2023-07-13T05:47:44;18.20;97.40
3705;DHT22;1868;48.918;9.438;2023-07-13T05:50:14;18.30;97.40
3705;DHT22;1868;48.918;9.438;2023-07-13T05:52:44;18.40;97.40
3705;DHT22;1868;48.918;9.438;2023-07-13T05:55:13;18.60;97.40
3705;DHT22;1868;48.918;9.438;2023-07-13T05:57:42;18.60;97.40
3705;DHT22;1868;48.918;9.438;2023-07-13T06:00:12;18.70;97.40
3705;DHT22;1868;48.918;9.438;2023-07-13T06:02:42;18.80;97.40
3705;DHT22;1868;48.918;9.438;2023-07-13T06:05:11;18.90;97.40
3705;DHT22;1868;48.918;9.438;2023-07-13T06:07:42;18.90;97.40
3705;DHT22;1868;48.918;9.438;2023-07-13T06:10:11;18.90;97.40
3705;DHT22;1868;48.918;9.438;2023-07-13T06:12:40;19.00;97.40
3705;DHT22;1868;48.918;9.438;2023-07-13T06:15:12;19.10;97.40
3705;DHT22;1868;48.918;9.438;2023-07-13T06:17:45;19.10;97.40
3705;DHT22;1868;48.918;9.438;2023-07-13T06:20:18;19.10;97.40
3705;DHT22;1868;48.918;9.438;2023-07-13T06:22:48;19.30;97.40
3705;DHT22;1868;48.918;9.438;2023-07-13T06:25:17;19.60;97.40
3705;DHT22;1868;48.918;9.438;2023-07-13T06:27:46;19.60;97.40
3705;DHT22;1868;48.918;9.438;2023-07-13T06:30:15;19.80;97.40
3705;DHT22;1868;48.918;9.438;2023-07-13T06:32:44;20.00;97.40
3705;DHT22;1868;48.918;9.438;2023-07-13T06:35:17;20.30;97.40
3705;DHT22;1868;48.918;9.438;2023-07-13T06:37:49;20.30;97.40
3705;DHT22;1868;48.918;9.438;2023-07-13T06:40:18;20.40;97.40
3705;DHT22;1868;48.918;9.438;2023-07-13T06:42:46;20.50;97.40
3705;DHT22;1868;48.918;9.438;2023-07-13T06:45:17;20.70;97.40
3705;DHT22;1868;48.918;9.438;2023-07-13T06:47:49;20.70;97.40
3705;DHT22;1868;48.918;9.438;2023-07-13T06:50:19;20.80;97.40
3705;DHT22;1868;48.918;9.438;2023-07-13T06:52:49;20.70;97.40
3705;DHT22;1868;48.918;9.438;2023-07-13T06:55:18;20.80;97.40
3705;DHT22;1868;48.918;9.438;2023-07-13T06:57:46;21.00;97.30
3705;DHT22;1868;48.918;9.438;2023-07-13T07:00:16;21.10;97.10
3705;DHT22;1868;48.918;9.438;2023-07-13T07:02:45;21.40;96.80
3705;DHT22;1868;48.918;9.438;2023-07-13T07:05:16;21.60;95.80
3705;DHT22;1868;48.918;9.438;2023-07-13T07:07:49;21.70;96.30
3705;DHT22;1868;48.918;9.438;2023-07-13T07:10:19;21.70;95.70
3705;DHT22;1868;48.918;9.438;2023-07-13T07:12:48;21.70;95.40
3705;DHT22;1868;48.918;9.438;2023-07-13T07:15:18;21.80;95.00
3705;DHT22;1868;48.918;9.438;2023-07-13T07:17:47;21.90;94.40
3705;DHT22;1868;48.918;9.438;2023-07-13T07:20:16;21.90;94.80
3705;DHT22;1868;48.918;9.438;2023-07-13T07:22:47;22.00;95.00
3705;DHT22;1868;48.918;9.438;2023-07-13T07:25:16;22.20;94.60
3705;DHT22;1868;48.918;9.438;2023-07-13T07:27:46;22.30;92.80
3705;DHT22;1868;48.918;9.438;2023-07-13T07:30:17;22.30;92.50
3705;DHT22;1868;48.918;9.438;2023-07-13T07:32:49;22.40;92.10
3705;DHT22;1868;48.918;9.438;2023-07-13T07:35:20;22.60;92.70
3705;DHT22;1868;48.918;9.438;2023-07-13T07:37:51;22.70;92.50
3705;DHT22;1868;48.918;9.438;2023-07-13T07:40:19;22.80;91.70
3705;DHT22;1868;48.918;9.438;2023-07-13T07:42:50;23.00;90.70
3705;DHT22;1868;48.918;9.438;2023-07-13T07:45:20;23.00;90.80
3705;DHT22;1868;48.918;9.438;2023-07-13T07:47:48;23.20;92.90
3705;DHT22;1868;48.918;9.438;2023-07-13T07:50:18;23.40;91.20
3705;DHT22;1868;48.918;9.438;2023-07-13T07:52:47;23.50;88.20
3705;DHT22;1868;48.918;9.438;2023-07-13T07:55:17;23.70;87.50
3705;DHT22;1868;48.918;9.438;2023-07-13T07:57:49;23.70;86.20
3705;DHT22;1868;48.918;9.438;2023-07-13T08:00:21;23.80;83.40
3705;DHT22;1868;48.918;9.438;2023-07-13T08:02:53;24.00;82.70
3705;DHT22;1868;48.918;9.438;2023-07-13T08:05:42;24.10;80.60
3705;DHT22;1868;48.918;9.438;2023-07-13T08:08:22;24.10;81.20
3705;DHT22;1868;48.918;9.438;2023-07-13T08:10:52;24.30;82.80
3705;DHT22;1868;48.918;9.438;2023-07-13T08:13:28;24.50;82.50
3705;DHT22;1868;48.918;9.438;2023-07-13T08:15:57;24.60;79.30
3705;DHT22;1868;48.918;9.438;2023-07-13T08:18:26;24.70;79.70
3705;DHT22;1868;48.918;9.438;2023-07-13T08:20:55;24.90;78.70
3705;DHT22;1868;48.918;9.438;2023-07-13T08:23:26;25.00;78.40
3705;DHT22;1868;48.918;9.438;2023-07-13T08:26:00;25.20;77.10
3705;DHT22;1868;48.918;9.438;2023-07-13T08:28:30;25.20;75.40
3705;DHT22;1868;48.918;9.438;2023-07-13T08:31:01;25.20;76.10
3705;DHT22;1868;48.918;9.438;2023-07-13T08:33:31;25.30;73.70
3705;DHT22;1868;48.918;9.438;2023-07-13T08:35:59;25.30;71.80
3705;DHT22;1868;48.918;9.438;2023-07-13T08:38:28;25.40;71.10
3705;DHT22;1868;48.918;9.438;2023-07-13T08:40:57;25.40;71.30
3705;DHT22;1868;48.918;9.438;2023-07-13T08:43:29;25.50;72.80
3705;DHT22;1868;48.918;9.438;2023-07-13T08:46:04;25.60;70.90
3705;DHT22;1868;48.918;9.438;2023-07-13T08:48:41;25.60;70.70
3705;DHT22;1868;48.918;9.438;2023-07-13T08:51:31;25.60;68.90
3705;DHT22;1868;48.918;9.438;2023-07-13T08:54:12;25.70;71.80
3705;DHT22;1868;48.918;9.438;2023-07-13T08:56:50;25.60;70.90
3705;DHT22;1868;48.918;9.438;2023-07-13T08:59:24;25.70;71.80
3705;DHT22;1868;48.918;9.438;2023-07-13T09:02:17;25.80;71.70
3705;DHT22;1868;48.918;9.438;2023-07-13T09:04:55;26.00;69.20
3705;DHT22;1868;48.918;9.438;2023-07-13T09:07:41;26.10;69.20
3705;DHT22;1868;48.918;9.438;2023-07-13T09:10:41;26.20;67.70
3705;DHT22;1868;48.918;9.438;2023-07-13T09:13:23;26.20;66.60
3705;DHT22;1868;48.918;9.438;2023-07-13T09:15:55;26.30;68.30
3705;DHT22;1868;48.918;9.438;2023-07-13T09:18:28;26.30;65.50
3705;DHT22;1868;48.918;9.438;2023-07-13T09:21:05;26.50;66.80
3705;DHT22;1868;48.918;9.438;2023-07-13T09:23:38;26.50;65.90
3705;DHT22;1868;48.918;9.438;2023-07-13T09:26:14;26.70;66.60
3705;DHT22;1868;48.918;9.438;2023-07-13T09:28:49;26.60;62.00
3705;DHT22;1868;48.918;9.438;2023-07-13T09:31:23;26.70;62.90
3705;DHT22;1868;48.918;9.438;2023-07-13T09:33:55;26.80;61.80
3705;DHT22;1868;48.918;9.438;2023-07-13T09:36:28;27.00;64.00
3705;DHT22;1868;48.918;9.438;2023-07-13T09:39:03;27.20;61.80
3705;DHT22;1868;48.918;9.438;2023-07-13T09:41:40;27.20;59.90
3705;DHT22;1868;48.918;9.438;2023-07-13T09:44:14;27.00;61.00
3705;DHT22;1868;48.918;9.438;2023-07-13T09:46:46;27.20;61.00
3705;DHT22;1868;48.918;9.438;2023-07-13T09:49:15;27.40;63.50
3705;DHT22;1868;48.918;9.438;2023-07-13T09:51:44;27.60;60.90
3705;DHT22;1868;48.918;9.438;2023-07-13T09:54:19;27.90;60.90
3705;DHT22;1868;48.918;9.438;2023-07-13T09:56:54;28.20;59.50
3705;DHT22;1868;48.918;9.438;2023-07-13T09:59:29;28.40;58.00
3705;DHT22;1868;48.918;9.438;2023-07-13T10:01:59;28.60;60.30
3705;DHT22;1868;48.918;9.438;2023-07-13T10:04:33;28.90;58.10
3705;DHT22;1868;48.918;9.438;2023-07-13T10:07:07;29.10;56.70
3705;DHT22;1868;48.918;9.438;2023-07-13T10:09:55;29.30;54.90
3705;DHT22;1868;48.918;9.438;2023-07-13T10:12:29;29.40;52.60
3705;DHT22;1868;48.918;9.438;2023-07-13T10:15:02;29.30;54.30
3705;DHT22;1868;48.918;9.438;2023-07-13T10:17:50;29.30;52.30
3705;DHT22;1868;48.918;9.438;2023-07-13T10:20:20;29.20;51.60
3705;DHT22;1868;48.918;9.438;2023-07-13T10:22:54;29.40;51.40
3705;DHT22;1868;48.918;9.438;2023-07-13T10:25:27;29.60;53.10
3705;DHT22;1868;48.918;9.438;2023-07-13T10:28:04;29.90;53.50
3705;DHT22;1868;48.918;9.438;2023-07-13T10:30:53;30.40;52.30
3705;DHT22;1868;48.918;9.438;2023-07-13T10:33:22;30.70;50.50
3705;DHT22;1868;48.918;9.438;2023-07-13T10:35:55;30.70;47.00
3705;DHT22;1868;48.918;9.438;2023-07-13T10:38:29;30.60;46.80
3705;DHT22;1868;48.918;9.438;2023-07-13T10:41:02;30.50;46.50
3705;DHT22;1868;48.918;9.438;2023-07-13T10:43:34;30.60;49.60
3705;DHT22;1868;48.918;9.438;2023-07-13T10:46:08;30.70;48.20
3705;DHT22;1868;48.918;9.438;2023-07-13T10:48:42;30.80;48.80
3705;DHT22;1868;48.918;9.438;2023-07-13T10:51:16;30.90;48.80
3705;DHT22;1868;48.918;9.438;2023-07-13T10:54:15;30.90;48.10
3705;DHT22;1868;48.918;9.438;2023-07-13T10:57:06;30.90;48.80
3705;DHT22;1868;48.918;9.438;2023-07-13T10:59:46;31.00;46.40
3705;DHT22;1868;48.918;9.438;2023-07-13T11:02:25;30.70;46.70
3705;DHT22;1868;48.918;9.438;2023-07-13T11:04:56;30.80;49.70
3705;DHT22;1868;48.918;9.438;2023-07-13T11:07:27;30.80;46.40
3705;DHT22;1868;48.918;9.438;2023-07-13T11:10:00;30.70;47.80
3705;DHT22;1868;48.918;9.438;2023-07-13T11:12:53;30.60;45.90
3705;DHT22;1868;48.918;9.438;2023-07-13T11:15:43;30.60;46.40
3705;DHT22;1868;48.918;9.438;2023-07-13T11:18:22;30.70;48.50
3705;DHT22;1868;48.918;9.438;2023-07-13T11:21:13;30.90;48.70
3705;DHT22;1868;48.918;9.438;2023-07-13T11:24:04;31.20;48.40
3705;DHT22;1868;48.918;9.438;2023-07-13T11:26:50;31.20;48.10
3705;DHT22;1868;48.918;9.438;2023-07-13T11:29:33;31.40;46.10
3705;DHT22;1868;48.918;9.438;2023-07-13T11:32:22;31.50;44.90
3705;DHT22;1868;48.918;9.438;2023-07-13T11:34:55;31.60;45.20
3705;DHT22;1868;48.918;9.438;2023-07-13T11:37:26;31.00;45.50
3705;DHT22;1868;48.918;9.438;2023-07-13T11:39:58;31.10;47.80
3705;DHT22;1868;48.918;9.438;2023-07-13T11:42:28;30.90;46.50
3705;DHT22;1868;48.918;9.438;2023-07-13T11:44:59;30.80;47.50
3705;DHT22;1868;48.918;9.438;2023-07-13T11:47:40;31.00;48.20
3705;DHT22;1868;48.918;9.438;2023-07-13T11:50:19;31.60;47.80
3705;DHT22;1868;48.918;9.438;2023-07-13T11:52:51;32.00;46.70
3705;DHT22;1868;48.918;9.438;2023-07-13T11:55:23;32.30;44.60
3705;DHT22;1868;48.918;9.438;2023-07-13T11:57:58;32.50;45.00
3705;DHT22;1868;48.918;9.438;2023-07-13T12:00:31;32.60;43.80
3705;DHT22;1868;48.918;9.438;2023-07-13T12:03:03;32.70;42.70
3705;DHT22;1868;48.918;9.438;2023-07-13T12:05:35;33.00;42.10
3705;DHT22;1868;48.918;9.438;2023-07-13T12:08:10;32.90;41.80
3705;DHT22;1868;48.918;9.438;2023-07-13T12:10:58;32.30;43.20
3705;DHT22;1868;48.918;9.438;2023-07-13T12:13:28;31.90;42.40
3705;DHT22;1868;48.918;9.438;2023-07-13T12:15:57;31.20;43.80
3705;DHT22;1868;48.918;9.438;2023-07-13T12:18:30;30.80;44.40
3705;DHT22;1868;48.918;9.438;2023-07-13T12:21:02;30.60;45.20
3705;DHT22;1868;48.918;9.438;2023-07-13T12:23:34;30.40;45.80
3705;DHT22;1868;48.918;9.438;2023-07-13T12:26:06;30.20;46.50
3705;DHT22;1868;48.918;9.438;2023-07-13T12:28:38;30.30;47.90
3705;DHT22;1868;48.918;9.438;2023-07-13T12:31:34;30.80;47.80
3705;DHT22;1868;48.918;9.438;2023-07-13T12:34:12;30.90;47.90
3705;DHT22;1868;48.918;9.438;2023-07-13T12:36:48;30.80;44.10
3705;DHT22;1868;48.918;9.438;2023-07-13T12:39:21;30.60;44.40
3705;DHT22;1868;48.918;9.438;2023-07-13T12:41:52;30.50;47.20
3705;DHT22;1868;48.918;9.438;2023-07-13T12:44:26;30.30;47.30
3705;DHT22;1868;48.918;9.438;2023-07-13T12:46:58;30.10;48.40
3705;DHT22;1868;48.918;9.438;2023-07-13T12:49:30;30.30;47.90
3705;DHT22;1868;48.918;9.438;2023-07-13T12:52:15;30.40;47.60
3705;DHT22;1868;48.918;9.438;2023-07-13T12:54:53;30.90;46.70
3705;DHT22;1868;48.918;9.438;2023-07-13T12:57:39;30.90;46.40
3705;DHT22;1868;48.918;9.438;2023-07-13T13:00:50;30.90;44.90
3705;DHT22;1868;48.918;9.438;2023-07-13T13:03:26;30.60;48.70
3705;DHT22;1868;48.918;9.438;2023-07-13T13:06:02;30.50;49.10
3705;DHT22;1868;48.918;9.438;2023-07-13T13:08:35;30.40;46.70
3705;DHT22;1868;48.918;9.438;2023-07-13T13:11:08;30.00;46.40
3705;DHT22;1868;48.918;9.438;2023-07-13T13:13:37;30.10;46.40
3705;DHT22;1868;48.918;9.438;2023-07-13T13:16:09;30.20;47.30
3705;DHT22;1868;48.918;9.438;2023-07-13T13:18:49;30.10;47.80
3705;DHT22;1868;48.918;9.438;2023-07-13T13:21:20;30.20;47.00
3705;DHT22;1868;48.918;9.438;2023-07-13T13:23:53;30.00;45.00
3705;DHT22;1868;48.918;9.438;2023-07-13T13:26:23;29.70;46.20
3705;DHT22;1868;48.918;9.438;2023-07-13T13:28:53;29.90;47.00
3705;DHT22;1868;48.918;9.438;2023-07-13T13:31:22;30.00;45.20
3705;DHT22;1868;48.918;9.438;2023-07-13T13:33:53;30.20;46.50
3705;DHT22;1868;48.918;9.438;2023-07-13T13:36:23;30.30;44.90
3705;DHT22;1868;48.918;9.438;2023-07-13T13:38:56;30.40;42.10
3705;DHT22;1868;48.918;9.438;2023-07-13T13:41:25;30.50;45.80
3705;DHT22;1868;48.918;9.438;2023-07-13T13:43:54;30.70;45.90
3705;DHT22;1868;48.918;9.438;2023-07-13T13:46:24;31.00;44.10
3705;DHT22;1868;48.918;9.438;2023-07-13T13:48:56;31.10;41.50
3705;DHT22;1868;48.918;9.438;2023-07-13T13:51:26;31.10;43.30
3705;DHT22;1868;48.918;9.438;2023-07-13T13:53:59;31.00;43.00
3705;DHT22;1868;48.918;9.438;2023-07-13T13:56:28;31.10;42.70
3705;DHT22;1868;48.918;9.438;2023-07-13T13:58:58;31.10;42.40
3705;DHT22;1868;48.918;9.438;2023-07-13T14:01:29;31.00;42.60
3705;DHT22;1868;48.918;9.438;2023-07-13T14:04:00;30.90;42.40
3705;DHT22;1868;48.918;9.438;2023-07-13T14:06:31;30.80;43.50
3705;DHT22;1868;48.918;9.438;2023-07-13T14:09:08;30.80;43.80
3705;DHT22;1868;48.918;9.438;2023-07-13T14:11:37;30.70;44.10
3705;DHT22;1868;48.918;9.438;2023-07-13T14:14:14;30.70;43.60
3705;DHT22;1868;48.918;9.438;2023-07-13T14:16:45;30.70;43.50
3705;DHT22;1868;48.918;9.438;2023-07-13T14:19:21;30.60;44.10
3705;DHT22;1868;48.918;9.438;2023-07-13T14:21:52;30.50;44.10
3705;DHT22;1868;48.918;9.438;2023-07-13T14:24:24;30.40;44.70
3705;DHT22;1868;48.918;9.438;2023-07-13T14:26:53;30.40;43.20
3705;DHT22;1868;48.918;9.438;2023-07-13T14:29:24;30.50;44.60
3705;DHT22;1868;48.918;9.438;2023-07-13T14:31:53;30.60;44.00
3705;DHT22;1868;48.918;9.438;2023-07-13T14:34:22;30.60;44.40
3705;DHT22;1868;48.918;9.438;2023-07-13T14:36:50;30.50;43.60
3705;DHT22;1868;48.918;9.438;2023-07-13T14:39:24;30.60;44.00
3705;DHT22;1868;48.918;9.438;2023-07-13T14:41:54;30.50;42.70
3705;DHT22;1868;48.918;9.438;2023-07-13T14:44:26;30.40;43.30
3705;DHT22;1868;48.918;9.438;2023-07-13T14:46:58;30.30;43.60
3705;DHT22;1868;48.918;9.438;2023-07-13T14:49:30;30.10;44.60
3705;DHT22;1868;48.918;9.438;2023-07-13T14:52:03;29.90;44.10
3705;DHT22;1868;48.918;9.438;2023-07-13T14:54:39;29.80;45.60
3705;DHT22;1868;48.918;9.438;2023-07-13T14:57:11;29.80;46.10
3705;DHT22;1868;48.918;9.438;2023-07-13T14:59:41;29.80;46.40
3705;DHT22;1868;48.918;9.438;2023-07-13T15:02:16;29.70;45.80
3705;DHT22;1868;48.918;9.438;2023-07-13T15:04:47;29.80;47.20
3705;DHT22;1868;48.918;9.438;2023-07-13T15:07:17;29.70;46.10
3705;DHT22;1868;48.918;9.438;2023-07-13T15:09:50;29.60;45.50
3705;DHT22;1868;48.918;9.438;2023-07-13T15:12:19;29.60;47.20
3705;DHT22;1868;48.918;9.438;2023-07-13T15:14:51;29.60;45.80
3705;DHT22;1868;48.918;9.438;2023-07-13T15:17:27;29.60;46.40
3705;DHT22;1868;48.918;9.438;2023-07-13T15:20:04;29.60;45.30
3705;DHT22;1868;48.918;9.438;2023-07-13T15:22:46;29.50;45.80
3705;DHT22;1868;48.918;9.438;2023-07-13T15:25:21;29.60;48.10
3705;DHT22;1868;48.918;9.438;2023-07-13T15:27:51;29.60;48.40
3705;DHT22;1868;48.918;9.438;2023-07-13T15:30:21;29.60;48.10
3705;DHT22;1868;48.918;9.438;2023-07-13T15:32:51;29.70;49.40
3705;DHT22;1868;48.918;9.438;2023-07-13T15:35:21;29.70;49.10
3705;DHT22;1868;48.918;9.438;2023-07-13T15:37:55;29.70;48.40
3705;DHT22;1868;48.918;9.438;2023-07-13T15:40:25;29.60;48.40
3705;DHT22;1868;48.918;9.438;2023-07-13T15:42:54;29.50;47.60
3705;DHT22;1868;48.918;9.438;2023-07-13T15:45:25;29.50;48.40
3705;DHT22;1868;48.918;9.438;2023-07-13T15:47:54;29.50;48.50
3705;DHT22;1868;48.918;9.438;2023-07-13T15:50:24;29.40;47.50
3705;DHT22;1868;48.918;9.438;2023-07-13T15:52:58;29.20;47.80
3705;DHT22;1868;48.918;9.438;2023-07-13T15:55:39;29.00;48.10
3705;DHT22;1868;48.918;9.438;2023-07-13T15:58:11;28.70;48.70
3705;DHT22;1868;48.918;9.438;2023-07-13T16:00:42;28.60;48.80
3705;DHT22;1868;48.918;9.438;2023-07-13T16:03:12;28.70;49.10
3705;DHT22;1868;48.918;9.438;2023-07-13T16:05:41;28.60;49.60
3705;DHT22;1868;48.918;9.438;2023-07-13T16:08:23;28.70;49.40
3705;DHT22;1868;48.918;9.438;2023-07-13T16:10:55;28.70;49.30
3705;DHT22;1868;48.918;9.438;2023-07-13T16:13:25;28.70;49.40
3705;DHT22;1868;48.918;9.438;2023-07-13T16:15:55;28.60;48.10
3705;DHT22;1868;48.918;9.438;2023-07-13T16:18:24;28.50;49.60
3705;DHT22;1868;48.918;9.438;2023-07-13T16:20:54;28.50;49.90
3705;DHT22;1868;48.918;9.438;2023-07-13T16:23:35;28.40;50.50
3705;DHT22;1868;48.918;9.438;2023-07-13T16:26:29;28.30;50.00
3705;DHT22;1868;48.918;9.438;2023-07-13T16:29:11;28.20;51.00
3705;DHT22;1868;48.918;9.438;2023-07-13T16:31:43;28.20;50.80
3705;DHT22;1868;48.918;9.438;2023-07-13T16:34:24;28.10;51.10
3705;DHT22;1868;48.918;9.438;2023-07-13T16:36:53;28.10;50.70